sensor_id;sensor_type;location;lat;lon;timestamp;temperature;humidity
78297;DHT22;67555;47.660;19.622;2023-04-01T00:01:50;10.60;76.60
78297;DHT22;67555;47.660;19.622;2023-04-01T00:04:17;10.50;76.50
78297;DHT22;67555;47.660;19.622;2023-04-01T00:06:43;10.50;76.50
78297;DHT22;67555;47.660;19.622;2023-04-01T00:09:08;10.50;76.40
78297;DHT22;67555;47.660;19.622;2023-04-01T00:11:34;10.50;76.30
78297;DHT22;67555;47.660;19.622;2023-04-01T00:14:00;10.50;76.20
78297;DHT22;67555;47.660;19.622;2023-04-01T00:16:26;10.40;76.10
78297;DHT22;67555;47.660;19.622;2023-04-01T00:18:52;10.40;76.00
78297;DHT22;67555;47.660;19.622;2023-04-01T00:21:19;10.30;75.90
78297;DHT22;67555;47.660;19.622;2023-04-01T00:23:45;10.30;75.80
78297;DHT22;67555;47.660;19.622;2023-04-01T00:26:11;10.20;75.80
78297;DHT22;67555;47.660;19.622;2023-04-01T00:28:37;10.10;75.80
78297;DHT22;67555;47.660;19.622;2023-04-01T00:31:07;10.00;75.90
78297;DHT22;67555;47.660;19.622;2023-04-01T00:33:33;10.00;75.90
78297;DHT22;67555;47.660;19.622;2023-04-01T00:36:14;9.80;75.90
78297;DHT22;67555;47.660;19.622;2023-04-01T00:38:40;9.80;76.00
78297;DHT22;67555;47.660;19.622;2023-04-01T00:41:07;9.70;76.10
78297;DHT22;67555;47.660;19.622;2023-04-01T00:43:33;9.70;76.20
78297;DHT22;67555;47.660;19.622;2023-04-01T00:45:59;9.60;76.20
78297;DHT22;67555;47.660;19.622;2023-04-01T00:48:31;9.50;76.30
78297;DHT22;67555;47.660;19.622;2023-04-01T00:51:10;9.50;76.30
78297;DHT22;67555;47.660;19.622;2023-04-01T00:53:40;9.50;76.40
78297;DHT22;67555;47.660;19.622;2023-04-01T00:59:02;9.40;76.60
78297;DHT22;67555;47.660;19.622;2023-04-01T01:01:31;9.40;76.70
78297;DHT22;67555;47.660;19.622;2023-04-01T01:03:57;9.40;76.90
78297;DHT22;67555;47.660;19.622;2023-04-01T01:06:44;9.30;77.00
78297;DHT22;67555;47.660;19.622;2023-04-01T01:12:16;9.30;77.10
78297;DHT22;67555;47.660;19.622;2023-04-01T01:23:12;9.20;76.80
78297;DHT22;67555;47.660;19.622;2023-04-01T01:31:44;9.30;76.60
78297;DHT22;67555;47.660;19.622;2023-04-01T01:34:32;9.30;76.60
78297;DHT22;67555;47.660;19.622;2023-04-01T01:37:09;9.40;76.50
78297;DHT22;67555;47.660;19.622;2023-04-01T01:39:37;9.40;76.50
78297;DHT22;67555;47.660;19.622;2023-04-01T01:42:06;9.40;76.50
78297;DHT22;67555;47.660;19.622;2023-04-01T01:44:34;9.40;76.50
78297;DHT22;67555;47.660;19.622;2023-04-01T01:47:01;9.40;76.60
78297;DHT22;67555;47.660;19.622;2023-04-01T01:49:28;9.40;76.60
78297;DHT22;67555;47.660;19.622;2023-04-01T01:51:56;9.40;76.60
78297;DHT22;67555;47.660;19.622;2023-04-01T01:54:22;9.40;76.80
78297;DHT22;67555;47.660;19.622;2023-04-01T01:56:51;9.40;76.90
78297;DHT22;67555;47.660;19.622;2023-04-01T01:59:20;9.40;77.00
78297;DHT22;67555;47.660;19.622;2023-04-01T02:01:51;9.40;77.10
78297;DHT22;67555;47.660;19.622;2023-04-01T02:04:18;9.40;77.20
78297;DHT22;67555;47.660;19.622;2023-04-01T02:06:55;9.40;77.20
78297;DHT22;67555;47.660;19.622;2023-04-01T02:09:22;9.40;77.20
78297;DHT22;67555;47.660;19.622;2023-04-01T02:11:49;9.50;77.30
78297;DHT22;67555;47.660;19.622;2023-04-01T02:14:25;9.50;77.30
78297;DHT22;67555;47.660;19.622;2023-04-01T02:20:29;9.60;77.20
78297;DHT22;67555;47.660;19.622;2023-04-01T02:22:37;9.60;77.20
78297;DHT22;67555;47.660;19.622;2023-04-01T02:25:28;9.60;77.10
78297;DHT22;67555;47.660;19.622;2023-04-01T02:27:56;9.70;77.00
78297;DHT22;67555;47.660;19.622;2023-04-01T02:30:25;9.70;77.00
78297;DHT22;67555;47.660;19.622;2023-04-01T02:32:52;9.70;76.90
78297;DHT22;67555;47.660;19.622;2023-04-01T02:35:19;9.80;76.90
78297;DHT22;67555;47.660;19.622;2023-04-01T02:37:46;9.80;76.80
78297;DHT22;67555;47.660;19.622;2023-04-01T02:40:15;9.80;76.80
78297;DHT22;67555;47.660;19.622;2023-04-01T02:42:42;9.80;76.80
78297;DHT22;67555;47.660;19.622;2023-04-01T02:45:08;9.80;76.70
78297;DHT22;67555;47.660;19.622;2023-04-01T02:47:34;9.80;76.70
78297;DHT22;67555;47.660;19.622;2023-04-01T02:50:03;9.80;76.70
78297;DHT22;67555;47.660;19.622;2023-04-01T02:52:29;9.80;76.80
78297;DHT22;67555;47.660;19.622;2023-04-01T02:54:56;9.80;76.80
78297;DHT22;67555;47.660;19.622;2023-04-01T02:57:23;9.80;76.80
78297;DHT22;67555;47.660;19.622;2023-04-01T02:59:49;9.80;76.80
78297;DHT22;67555;47.660;19.622;2023-04-01T03:02:15;9.80;76.80
78297;DHT22;67555;47.660;19.622;2023-04-01T03:04:41;9.80;76.80
78297;DHT22;67555;47.660;19.622;2023-04-01T03:07:07;9.80;76.80
78297;DHT22;67555;47.660;19.622;2023-04-01T03:09:35;9.70;76.80
78297;DHT22;67555;47.660;19.622;2023-04-01T03:12:01;9.70;76.80
78297;DHT22;67555;47.660;19.622;2023-04-01T03:14:27;9.60;76.80
78297;DHT22;67555;47.660;19.622;2023-04-01T03:16:53;9.60;76.80
78297;DHT22;67555;47.660;19.622;2023-04-01T03:19:19;9.60;76.80
78297;DHT22;67555;47.660;19.622;2023-04-01T03:21:45;9.50;76.80
78297;DHT22;67555;47.660;19.622;2023-04-01T03:24:10;9.50;76.80
78297;DHT22;67555;47.660;19.622;2023-04-01T03:26:36;9.40;76.80
78297;DHT22;67555;47.660;19.622;2023-04-01T03:29:02;9.40;76.80
78297;DHT22;67555;47.660;19.622;2023-04-01T03:31:27;9.20;76.90
78297;DHT22;67555;47.660;19.622;2023-04-01T03:33:53;9.20;77.00
78297;DHT22;67555;47.660;19.622;2023-04-01T03:36:19;9.10;77.10
78297;DHT22;67555;47.660;19.622;2023-04-01T03:38:45;9.00;77.30
78297;DHT22;67555;47.660;19.622;2023-04-01T03:41:15;9.00;77.50
78297;DHT22;67555;47.660;19.622;2023-04-01T03:43:41;8.90;77.60
78297;DHT22;67555;47.660;19.622;2023-04-01T03:46:07;8.90;77.70
78297;DHT22;67555;47.660;19.622;2023-04-01T03:48:33;8.90;77.70
78297;DHT22;67555;47.660;19.622;2023-04-01T03:50:59;8.90;77.70
78297;DHT22;67555;47.660;19.622;2023-04-01T03:53:25;8.80;77.80
78297;DHT22;67555;47.660;19.622;2023-04-01T03:55:50;8.80;77.80
78297;DHT22;67555;47.660;19.622;2023-04-01T03:58:19;8.80;77.80
78297;DHT22;67555;47.660;19.622;2023-04-01T04:00:45;8.80;77.80
78297;DHT22;67555;47.660;19.622;2023-04-01T04:03:11;8.80;77.80
78297;DHT22;67555;47.660;19.622;2023-04-01T04:05:37;8.80;77.80
78297;DHT22;67555;47.660;19.622;2023-04-01T04:08:03;8.80;77.80
78297;DHT22;67555;47.660;19.622;2023-04-01T04:10:29;8.80;77.80
78297;DHT22;67555;47.660;19.622;2023-04-01T04:12:55;8.80;77.90
78297;DHT22;67555;47.660;19.622;2023-04-01T04:15:21;8.80;77.90
78297;DHT22;67555;47.660;19.622;2023-04-01T04:17:47;8.80;77.90
78297;DHT22;67555;47.660;19.622;2023-04-01T04:20:13;8.80;77.90
78297;DHT22;67555;47.660;19.622;2023-04-01T04:22:39;8.80;77.90
78297;DHT22;67555;47.660;19.622;2023-04-01T04:25:06;8.80;77.90
78297;DHT22;67555;47.660;19.622;2023-04-01T04:27:32;8.90;77.70
78297;DHT22;67555;47.660;19.622;2023-04-01T04:29:58;8.90;77.60
78297;DHT22;67555;47.660;19.622;2023-04-01T04:32:23;8.90;77.50
78297;DHT22;67555;47.660;19.622;2023-04-01T04:34:49;9.00;77.50
78297;DHT22;67555;47.660;19.622;2023-04-01T04:37:15;9.00;77.40
78297;DHT22;67555;47.660;19.622;2023-04-01T04:39:40;9.00;77.20
78297;DHT22;67555;47.660;19.622;2023-04-01T04:42:06;9.20;77.20
78297;DHT22;67555;47.660;19.622;2023-04-01T04:44:32;9.20;77.10
78297;DHT22;67555;47.660;19.622;2023-04-01T04:46:57;9.20;77.20
78297;DHT22;67555;47.660;19.622;2023-04-01T04:49:23;9.20;77.30
78297;DHT22;67555;47.660;19.622;2023-04-01T04:51:49;9.20;77.40
78297;DHT22;67555;47.660;19.622;2023-04-01T04:54:15;9.20;77.30
78297;DHT22;67555;47.660;19.622;2023-04-01T04:56:41;9.30;77.20
78297;DHT22;67555;47.660;19.622;2023-04-01T04:59:07;9.30;77.10
78297;DHT22;67555;47.660;19.622;2023-04-01T05:01:33;9.40;76.90
78297;DHT22;67555;47.660;19.622;2023-04-01T05:03:59;9.40;76.80
78297;DHT22;67555;47.660;19.622;2023-04-01T05:06:25;9.50;76.70
78297;DHT22;67555;47.660;19.622;2023-04-01T05:08:55;9.50;76.50
78297;DHT22;67555;47.660;19.622;2023-04-01T05:11:21;9.60;76.40
78297;DHT22;67555;47.660;19.622;2023-04-01T05:13:47;9.60;76.30
78297;DHT22;67555;47.660;19.622;2023-04-01T05:16:18;9.60;76.10
78297;DHT22;67555;47.660;19.622;2023-04-01T05:18:44;9.70;76.00
78297;DHT22;67555;47.660;19.622;2023-04-01T05:21:12;9.60;75.90
78297;DHT22;67555;47.660;19.622;2023-04-01T05:23:39;9.70;75.90
78297;DHT22;67555;47.660;19.622;2023-04-01T05:26:06;9.70;75.90
78297;DHT22;67555;47.660;19.622;2023-04-01T05:28:32;9.70;75.80
78297;DHT22;67555;47.660;19.622;2023-04-01T05:31:02;9.70;75.80
78297;DHT22;67555;47.660;19.622;2023-04-01T05:33:29;9.80;75.70
78297;DHT22;67555;47.660;19.622;2023-04-01T05:35:55;9.80;75.60
78297;DHT22;67555;47.660;19.622;2023-04-01T05:38:21;9.80;75.70
78297;DHT22;67555;47.660;19.622;2023-04-01T05:40:47;9.90;75.60
78297;DHT22;67555;47.660;19.622;2023-04-01T05:43:13;10.00;75.50
78297;DHT22;67555;47.660;19.622;2023-04-01T05:45:39;10.00;75.30
78297;DHT22;67555;47.660;19.622;2023-04-01T05:48:04;10.00;75.20
78297;DHT22;67555;47.660;19.622;2023-04-01T05:50:30;10.10;75.10
78297;DHT22;67555;47.660;19.622;2023-04-01T05:52:56;10.10;75.00
78297;DHT22;67555;47.660;19.622;2023-04-01T05:55:22;10.20;74.90
78297;DHT22;67555;47.660;19.622;2023-04-01T05:57:48;10.10;75.00
78297;DHT22;67555;47.660;19.622;2023-04-01T06:00:16;10.00;75.40
78297;DHT22;67555;47.660;19.622;2023-04-01T06:02:43;9.90;75.70
78297;DHT22;67555;47.660;19.622;2023-04-01T06:05:21;9.80;76.00
78297;DHT22;67555;47.660;19.622;2023-04-01T06:07:47;9.80;76.20
78297;DHT22;67555;47.660;19.622;2023-04-01T06:10:18;9.70;76.40
78297;DHT22;67555;47.660;19.622;2023-04-01T06:12:50;9.70;76.50
78297;DHT22;67555;47.660;19.622;2023-04-01T06:15:34;9.80;76.40
78297;DHT22;67555;47.660;19.622;2023-04-01T06:20:54;9.70;76.50
78297;DHT22;67555;47.660;19.622;2023-04-01T06:26:37;9.70;76.40
78297;DHT22;67555;47.660;19.622;2023-04-01T06:34:47;9.60;77.40
78297;DHT22;67555;47.660;19.622;2023-04-01T06:46:00;10.00;77.90
78297;DHT22;67555;47.660;19.622;2023-04-01T06:48:46;10.20;77.90
78297;DHT22;67555;47.660;19.622;2023-04-01T06:54:20;10.80;76.50
78297;DHT22;67555;47.660;19.622;2023-04-01T06:56:52;11.00;76.10
78297;DHT22;67555;47.660;19.622;2023-04-01T06:59:28;11.20;75.60
78297;DHT22;67555;47.660;19.622;2023-04-01T07:02:03;11.50;75.10
78297;DHT22;67555;47.660;19.622;2023-04-01T07:04:37;11.70;74.70
78297;DHT22;67555;47.660;19.622;2023-04-01T07:07:43;11.80;74.50
78297;DHT22;67555;47.660;19.622;2023-04-01T07:10:58;12.00;74.00
78297;DHT22;67555;47.660;19.622;2023-04-01T07:16:32;12.10;73.00
78297;DHT22;67555;47.660;19.622;2023-04-01T07:19:16;12.20;72.70
78297;DHT22;67555;47.660;19.622;2023-04-01T07:21:55;12.20;72.60
78297;DHT22;67555;47.660;19.622;2023-04-01T07:24:26;12.20;71.90
78297;DHT22;67555;47.660;19.622;2023-04-01T07:26:55;12.10;72.00
78297;DHT22;67555;47.660;19.622;2023-04-01T07:29:21;12.00;71.90
78297;DHT22;67555;47.660;19.622;2023-04-01T07:32:00;12.10;72.20
78297;DHT22;67555;47.660;19.622;2023-04-01T07:35:07;12.00;72.10
78297;DHT22;67555;47.660;19.622;2023-04-01T07:40:29;11.90;72.40
78297;DHT22;67555;47.660;19.622;2023-04-01T07:48:43;12.10;70.60
78297;DHT22;67555;47.660;19.622;2023-04-01T07:54:25;12.30;70.10
78297;DHT22;67555;47.660;19.622;2023-04-01T07:57:14;12.50;69.40
78297;DHT22;67555;47.660;19.622;2023-04-01T07:59:52;12.70;69.30
78297;DHT22;67555;47.660;19.622;2023-04-01T08:07:45;13.20;65.40
78297;DHT22;67555;47.660;19.622;2023-04-01T08:10:22;13.40;65.20
78297;DHT22;67555;47.660;19.622;2023-04-01T08:13:18;13.50;64.10
78297;DHT22;67555;47.660;19.622;2023-04-01T08:19:09;13.90;62.70
78297;DHT22;67555;47.660;19.622;2023-04-01T08:21:52;13.90;62.30
78297;DHT22;67555;47.660;19.622;2023-04-01T08:24:30;13.90;61.40
78297;DHT22;67555;47.660;19.622;2023-04-01T08:27:00;13.90;61.50
78297;DHT22;67555;47.660;19.622;2023-04-01T08:29:40;14.00;61.20
78297;DHT22;67555;47.660;19.622;2023-04-01T08:32:11;14.10;60.90
78297;DHT22;67555;47.660;19.622;2023-04-01T08:34:40;14.10;60.40
78297;DHT22;67555;47.660;19.622;2023-04-01T08:37:21;14.20;60.10
78297;DHT22;67555;47.660;19.622;2023-04-01T08:42:35;14.50;59.80
78297;DHT22;67555;47.660;19.622;2023-04-01T08:56:21;15.00;58.20
78297;DHT22;67555;47.660;19.622;2023-04-01T09:19:53;14.70;55.60
78297;DHT22;67555;47.660;19.622;2023-04-01T09:22:39;14.70;55.50
78297;DHT22;67555;47.660;19.622;2023-04-01T09:45:15;16.00;54.80
78297;DHT22;67555;47.660;19.622;2023-04-01T09:56:40;15.20;54.70
78297;DHT22;67555;47.660;19.622;2023-04-01T10:05:09;15.40;52.70
78297;DHT22;67555;47.660;19.622;2023-04-01T10:21:53;15.40;52.30
78297;DHT22;67555;47.660;19.622;2023-04-01T10:24:56;15.40;50.90
78297;DHT22;67555;47.660;19.622;2023-04-01T10:47:33;16.10;53.40
78297;DHT22;67555;47.660;19.622;2023-04-01T10:50:17;16.10;53.60
78297;DHT22;67555;47.660;19.622;2023-04-01T11:01:21;15.80;54.30
78297;DHT22;67555;47.660;19.622;2023-04-01T11:12:38;16.10;54.10
78297;DHT22;67555;47.660;19.622;2023-04-01T11:26:31;16.10;54.70
78297;DHT22;67555;47.660;19.622;2023-04-01T11:43:16;16.50;53.90
78297;DHT22;67555;47.660;19.622;2023-04-01T11:46:02;16.50;53.50
78297;DHT22;67555;47.660;19.622;2023-04-01T11:49:04;16.60;53.30
78297;DHT22;67555;47.660;19.622;2023-04-01T11:55:05;16.80;53.20
78297;DHT22;67555;47.660;19.622;2023-04-01T12:09:12;16.60;51.30
78297;DHT22;67555;47.660;19.622;2023-04-01T12:20:19;16.60;51.50
78297;DHT22;67555;47.660;19.622;2023-04-01T12:42:06;16.50;50.20
78297;DHT22;67555;47.660;19.622;2023-04-01T12:55:43;17.20;49.20
78297;DHT22;67555;47.660;19.622;2023-04-01T13:01:08;17.20;48.60
78297;DHT22;67555;47.660;19.622;2023-04-01T13:14:23;17.30;48.20
78297;DHT22;67555;47.660;19.622;2023-04-01T13:17:10;17.20;48.40
78297;DHT22;67555;47.660;19.622;2023-04-01T13:19:58;17.00;48.80
78297;DHT22;67555;47.660;19.622;2023-04-01T13:22:45;16.80;48.30
78297;DHT22;67555;47.660;19.622;2023-04-01T13:30:43;16.40;49.20
78297;DHT22;67555;47.660;19.622;2023-04-01T13:36:24;16.20;50.30
78297;DHT22;67555;47.660;19.622;2023-04-01T13:42:00;15.90;49.70
78297;DHT22;67555;47.660;19.622;2023-04-01T13:44:41;15.70;50.10
78297;DHT22;67555;47.660;19.622;2023-04-01T14:00:46;15.60;50.20
78297;DHT22;67555;47.660;19.622;2023-04-01T14:05:51;15.60;50.20
78297;DHT22;67555;47.660;19.622;2023-04-01T14:14:19;15.00;49.90
78297;DHT22;67555;47.660;19.622;2023-04-01T14:26:07;15.50;50.70
78297;DHT22;67555;47.660;19.622;2023-04-01T14:48:48;15.30;49.60
78297;DHT22;67555;47.660;19.622;2023-04-01T14:51:39;15.30;49.40
78297;DHT22;67555;47.660;19.622;2023-04-01T14:56:42;15.20;49.70
78297;DHT22;67555;47.660;19.622;2023-04-01T14:59:25;15.20;49.90
78297;DHT22;67555;47.660;19.622;2023-04-01T15:05:16;15.10;49.80
78297;DHT22;67555;47.660;19.622;2023-04-01T15:07:59;15.00;50.30
78297;DHT22;67555;47.660;19.622;2023-04-01T15:21:21;15.00;50.70
78297;DHT22;67555;47.660;19.622;2023-04-01T15:27:24;14.90;51.00
78297;DHT22;67555;47.660;19.622;2023-04-01T15:30:04;14.90;51.20
78297;DHT22;67555;47.660;19.622;2023-04-01T15:32:59;14.90;51.30
78297;DHT22;67555;47.660;19.622;2023-04-01T15:38:24;14.80;51.50
78297;DHT22;67555;47.660;19.622;2023-04-01T15:43:49;14.70;51.30
78297;DHT22;67555;47.660;19.622;2023-04-01T15:46:26;14.60;50.50
78297;DHT22;67555;47.660;19.622;2023-04-01T16:08:36;14.00;54.00
78297;DHT22;67555;47.660;19.622;2023-04-01T16:22:05;13.50;55.40
78297;DHT22;67555;47.660;19.622;2023-04-01T16:30:37;13.10;56.70
78297;DHT22;67555;47.660;19.622;2023-04-01T16:33:14;13.00;57.10
78297;DHT22;67555;47.660;19.622;2023-04-01T16:35:54;12.90;57.60
78297;DHT22;67555;47.660;19.622;2023-04-01T16:38:33;12.90;57.70
78297;DHT22;67555;47.660;19.622;2023-04-01T16:41:11;12.80;57.90
78297;DHT22;67555;47.660;19.622;2023-04-01T16:43:49;12.80;58.10
78297;DHT22;67555;47.660;19.622;2023-04-01T16:46:27;12.70;58.40
78297;DHT22;67555;47.660;19.622;2023-04-01T16:52:04;12.50;58.90
78297;DHT22;67555;47.660;19.622;2023-04-01T16:54:58;12.50;59.00
78297;DHT22;67555;47.660;19.622;2023-04-01T16:57:37;12.50;59.30
78297;DHT22;67555;47.660;19.622;2023-04-01T17:03:02;12.30;59.70
78297;DHT22;67555;47.660;19.622;2023-04-01T17:09:25;12.20;60.10
78297;DHT22;67555;47.660;19.622;2023-04-01T17:21:00;11.90;61.00
78297;DHT22;67555;47.660;19.622;2023-04-01T17:31:11;11.50;61.90
78297;DHT22;67555;47.660;19.622;2023-04-01T17:39:20;11.30;62.70
78297;DHT22;67555;47.660;19.622;2023-04-01T17:58:45;10.50;64.80
78297;DHT22;67555;47.660;19.622;2023-04-01T18:18:50;10.40;65.80
78297;DHT22;67555;47.660;19.622;2023-04-01T18:24:02;10.60;65.20
78297;DHT22;67555;47.660;19.622;2023-04-01T18:26:34;10.60;65.10
78297;DHT22;67555;47.660;19.622;2023-04-01T18:31:56;10.60;65.00
78297;DHT22;67555;47.660;19.622;2023-04-01T18:37:44;10.60;65.10
78297;DHT22;67555;47.660;19.622;2023-04-01T18:40:20;10.50;65.20
78297;DHT22;67555;47.660;19.622;2023-04-01T18:43:17;10.50;65.30
78297;DHT22;67555;47.660;19.622;2023-04-01T18:45:57;10.50;65.50
78297;DHT22;67555;47.660;19.622;2023-04-01T18:54:02;10.30;66.20
78297;DHT22;67555;47.660;19.622;2023-04-01T18:56:36;10.20;66.50
78297;DHT22;67555;47.660;19.622;2023-04-01T19:07:51;10.20;66.30
78297;DHT22;67555;47.660;19.622;2023-04-01T19:10:48;10.30;66.00
78297;DHT22;67555;47.660;19.622;2023-04-01T19:13:44;10.30;65.70
78297;DHT22;67555;47.660;19.622;2023-04-01T19:21:58;10.30;65.00
78297;DHT22;67555;47.660;19.622;2023-04-01T19:24:58;10.30;64.90
78297;DHT22;67555;47.660;19.622;2023-04-01T19:27:33;10.30;64.80
78297;DHT22;67555;47.660;19.622;2023-04-01T19:38:28;10.20;64.90
78297;DHT22;67555;47.660;19.622;2023-04-01T20:00:51;10.00;64.80
78297;DHT22;67555;47.660;19.622;2023-04-01T20:03:54;10.00;64.70
78297;DHT22;67555;47.660;19.622;2023-04-01T20:12:21;9.50;65.50
78297;DHT22;67555;47.660;19.622;2023-04-01T20:14:52;9.20;66.30
78297;DHT22;67555;47.660;19.622;2023-04-01T20:17:45;9.00;67.00
78297;DHT22;67555;47.660;19.622;2023-04-01T20:36:34;8.30;68.60
78297;DHT22;67555;47.660;19.622;2023-04-01T20:39:27;8.30;68.90
78297;DHT22;67555;47.660;19.622;2023-04-01T20:42:22;8.20;69.20
78297;DHT22;67555;47.660;19.622;2023-04-01T20:53:15;8.40;68.80
78297;DHT22;67555;47.660;19.622;2023-04-01T21:01:51;8.60;67.90
78297;DHT22;67555;47.660;19.622;2023-04-01T21:07:51;8.80;67.60
78297;DHT22;67555;47.660;19.622;2023-04-01T21:15:50;8.90;67.50
78297;DHT22;67555;47.660;19.622;2023-04-01T21:23:59;8.80;67.70
78297;DHT22;67555;47.660;19.622;2023-04-01T21:32:46;8.70;68.30
78297;DHT22;67555;47.660;19.622;2023-04-01T21:40:54;8.40;69.20
78297;DHT22;67555;47.660;19.622;2023-04-01T21:43:34;8.50;69.30
78297;DHT22;67555;47.660;19.622;2023-04-01T22:11:06;8.60;68.90
78297;DHT22;67555;47.660;19.622;2023-04-01T22:14:15;8.60;68.90
78297;DHT22;67555;47.660;19.622;2023-04-01T22:25:14;8.60;68.80
78297;DHT22;67555;47.660;19.622;2023-04-01T22:27:49;8.50;68.80
78297;DHT22;67555;47.660;19.622;2023-04-01T22:30:24;8.50;68.80
78297;DHT22;67555;47.660;19.622;2023-04-01T22:41:52;8.30;69.10
78297;DHT22;67555;47.660;19.622;2023-04-01T22:53:19;8.20;69.50
78297;DHT22;67555;47.660;19.622;2023-04-01T22:55:44;8.20;69.70
78297;DHT22;67555;47.660;19.622;2023-04-01T22:58:18;8.20;69.70
78297;DHT22;67555;47.660;19.622;2023-04-01T23:00:50;8.30;69.70
78297;DHT22;67555;47.660;19.622;2023-04-01T23:03:35;8.30;69.70
78297;DHT22;67555;47.660;19.622;2023-04-01T23:06:04;8.40;69.80
78297;DHT22;67555;47.660;19.622;2023-04-01T23:08:40;8.40;69.90
78297;DHT22;67555;47.660;19.622;2023-04-01T23:13:47;8.30;70.20
78297;DHT22;67555;47.660;19.622;2023-04-01T23:16:23;8.20;70.40
78297;DHT22;67555;47.660;19.622;2023-04-01T23:20:04;8.20;70.50
78297;DHT22;67555;47.660;19.622;2023-04-01T23:22:14;8.20;70.50
78297;DHT22;67555;47.660;19.622;2023-04-01T23:27:28;8.20;70.80
78297;DHT22;67555;47.660;19.622;2023-04-01T23:29:56;8.10;71.00
78297;DHT22;67555;47.660;19.622;2023-04-01T23:32:24;8.20;70.90
78297;DHT22;67555;47.660;19.622;2023-04-01T23:34:57;8.20;70.70
78297;DHT22;67555;47.660;19.622;2023-04-01T23:37:24;8.30;70.60
78297;DHT22;67555;47.660;19.622;2023-04-01T23:39:53;8.30;70.40
78297;DHT22;67555;47.660;19.622;2023-04-01T23:44:53;8.30;70.20
78297;DHT22;67555;47.660;19.622;2023-04-01T23:47:30;8.30;70.20
78297;DHT22;67555;47.660;19.622;2023-04-01T23:50:04;8.30;70.20
78297;DHT22;67555;47.660;19.622;2023-04-01T23:55:27;8.20;70.20
